Race Results for
Ronde Van Brisbeen
Birsbane, CA
(Event Information)
Criterium on 03/30/2008

Note: Ranking points are NOT upgrade points. An explanation of ranking points can be found here.


Men - Pro/Cat 1/2

 Place Points NameCity, StateTime USAC #BibTeam
1540.00Nathan Miller (1 - Pro)   Vacaville, CA00:00:00.00 188446  59 UCI PCT: BMC Racing Team
2540.89Brent Bookwalter   Asheville, NC00:00:00.00 171977  64 UCI PCT: BMC Racing Team
3541.79Freddie Rodriguez   Berkeley, CA00:00:00.00 30322  69 UCI CT: Rock Racing
4542.68Taylor Tolleson   Watsonville, CA00:00:00.00 180179  65 UCI PCT: BMC Racing Team
5543.57Uthman Ray (1 - Cat1)   Oakland, CA00:00:00.00 146803  45 ZteaM Cycling
6544.46Scott Nydam   Window Rock, AZ00:00:00.00 205020  75 UCI PCT: BMC Racing Team
7545.36Steve Reaney   San Jose, CA00:00:00.00 133288  68 California Giant Cycling
8546.25Jackson Stewart   San Jose, CA00:00:00.00 42023  79 UCI PCT: BMC Racing Team
9547.14Todd Hennings   Kenwood, CA00:00:00.00 15835  23 Pacific State Bank Cycling Tea
10548.04Rand Miller   San Francisco, CA00:00:00.00 182990  39 Webcor/Alto Velo
11548.93Christian Kearney (2 - Cat1)   Oakland, CA00:00:00.00 197820  26 ZteaM Cycling
12549.82Chris Turner   Los Altos, CA00:00:00.00 253101  52 Page Mill Racing
13550.71Roman Kilun   Oakland, CA00:00:00.00 153790  38 UCI PCT: Health Net Profession
14551.61John Wilk   Oakland, CA00:00:00.00 199951  57 Sierra Pacific Racing
15552.50Martin Erlandsson (3 - Cat1)   Tiburon, CA00:00:00.00 270125  15 ZteaM Cycling
16553.39Robert MacNeill   San Carlos, CA00:00:00.00 199599  35 Webcor/Alto Velo
17554.29Tyler Gough (1 - Cat2)   Middletown, CA00:00:00.00 204630  20 Adobe/Schwalbe presented by Lo
18555.18Ian Tuttle   Mill Valley, CA00:00:00.00 216565  53 Above Category Racing
19556.07Charlie Avis   Palo Alto, CA00:00:00.00 224306  Team Specialized Racing Junior
20556.96Andrew Goessling   Richmond, CA00:00:00.00 207262  19 Village Peddler
21Jonathan COULTER   00:00:00.00  11 Webcor / Alto Velo
22558.75Nicholas Agate (2 - Cat2)   Albany, CA00:00:00.00 180146  California Giant Berry Farms
23559.64James Miller   Hella Norcal Ca00:00:00.00 122096  62 NorCal Elite Cycling
24560.54Mack Chew   San Francisco, CA00:00:00.00 170147  10 McGuire Cycling Team
25561.43Ian Lockley   Oakland, CA00:00:00.00 219888  30 East Bay Velo Club
26562.32Dave Galvin (2 - Pro)   Menlo Park, CA00:00:00.00 210384  18 BMC Racing Team
27563.21Steve Holmes   Mill Valley, CA00:00:00.00 199746  24 Lombardi Sports Elite Cycling
28564.11Tore Nauta   Los Gatos, CA00:00:00.00 237281  76 Webcor/Alto Velo
29565.00Max Polin   Davis, CA00:00:00.00 228684  44 Team City
30565.89John Hunt (4 - Cat1)   Fairfax, CA00:00:00.00 17154  63 California Giant Cycling
31566.79Christopher Phipps   San Francisco, CA00:00:00.00 233623  43 Morgan Stanley/24 Hr Fitness/S
32567.68Matthew Tamel (3 - Cat2)   San Jose, CA00:00:00.00 63450  49 BPG / Montano Velo
33568.57James Mattis   Mountain View, CA00:00:00.00 127344  37 California Giant Berry Farms/
34569.46James Badia   Redwood City, CA00:00:00.00 200949  Webcor/Alto Velo
35570.36Doran Mori   Oakland, CA00:00:00.00 196267  40 Team Clif Bar Cycling
36571.25Patrick Briggs   Oakland, CA00:00:00.00 4838  California Giant Berry Farms/
37572.14Eric Balfus   Los Gatos, CA00:00:00.00 690  60 Los Gatos Bicycle Racing Club
38573.04Brent Mann   Walnut Creek, CA00:00:00.00 245038  36 McGuire Cycling Team
39573.93Robert Winder   Lafayette, CA00:00:00.00 220285  58 NorCal Elite Cycling
40574.82Chris Carscadden   Walnut Creek, CA00:00:00.00 165751  Adobe/HDR p/b Lombardi Sports
41575.71Sean McBride   Oakland, CA00:00:00.00 190591  74 BPG/Montano Velo
42576.61Michael Foley   Moraga, CA00:00:00.00 11946  17 Wells Fargo Racing Team
43577.50Chris Swan (5 - Cat1)   Portland, OR00:00:00.00 219970  48 ZteaM Cycling
44578.39Joe Feng   Santa Rosa, CA00:00:00.00 213018  71 Unattached
45579.29Matthew Ream   Verdi, NV00:00:00.00 211441  46 OWENS HEALTH CARE
46580.18Damon Pettinger   Seattle, WA00:00:00.00 60117  70 Lake Washington Velo
47581.07Benjamin Lyon   San Francisco, CA00:00:00.00 227794  33 McGuire Cycling Team
48581.96Keith Szolusha   Saratoga, CA00:00:00.00 109435  77 Delta Velo
49582.86Ryan Sabga   Denver, CO00:00:00.00 98814  47 USA Pista Elite
50583.75Christopher Hipp (6 - Cat1)   Redwood City, CA00:00:00.00 16294  67 Labor Power
51584.64Darren Basso   Belmont, CA00:00:00.00 130973  McGuire Cycling Team
52585.54Neil Harrington   Los Altos Hills, CA00:00:00.00 247680  61 Webcor/Alto Velo
53UNKNOWN RIDER   00:00:00.00  78 
54587.32Dennis Hopp   San Jose, CA00:00:00.00 54895  25 Easton/Specialized
55588.21Kalen Gruber   Los Altos Hills, CA00:00:00.00 49467  21 Easton/Sugar CRM/Specialized
56589.11Stephen Dey (7 - Cat1)   Oakland, CA00:00:00.00 203800  13 ZteaM Cycling
57590.00Paul Kundrat   Belvedere, CA00:00:00.00 59561  27 East Bay Velo Club
DNSBenjamin Barsi-Rhyne   Los Gatos, CA00:00:00.00 197823  Adobe/HDR Presented by Lombard
DNSMatthew Beebe   Redwood City, CA00:00:00.00 205076  Webcor/Alto Velo
DNSRyan Bennett   San Francisco, CA00:00:00.00 180391  Adobe/HDR presented by Lombard
DNSPaul Carter   Pleasant Hill, CA00:00:00.00 58642  12 Contra Costa Cycling Club
DNSAlton Dunnigan   Pleasant Hill, CA00:00:00.00 157044  14 McGuire Cycling Team
DNSNathan Falk   Pleasanton, CA00:00:00.00 98304  16 International Christian Cyclin
DNSJames Lillard   Redwood City, CA00:00:00.00 89051  22 
DNSBrian Laird   Menlo Park, CA00:00:00.00 20154  28 Labor Power
DNSJP LeClair   Moraga, CA00:00:00.00 203347  29 Adobe/HDR p/b Lombardi Sports
DNSWilliam Longstreth   Tiburon, CA00:00:00.00 110206  31 Olympic Club
DNSJustin Lucke   Redwood City, CA00:00:00.00 21760  32 OrganicAthlete
DNSMichael Ma   San Jose, CA00:00:00.00 41600  34 SJBC/SugarCRM
DNSMatthew Obregon   Folsom, CA00:00:00.00 232613  41 U23 Lombardi Sports
DNSBrian Peterson   Santa Cruz, CA00:00:00.00 196252  42 Webcor/Alto Velo
DNSTed Toribio   Elk Grove00:00:00.00 88963  50 International Christian Cyclin
DNSJohn Trefethen   Danville, CA00:00:00.00 212376  51 International Christian Cyclin
DNSMichael Tymoff   San Francisco, CA00:00:00.00 207589  54 McGuire Cycling Team
DNSDevon Vigus   Oakland, CA00:00:00.00 115524  55 California Giant Berry Farms/
DNSWyatt Weisel   Menlo Park, CA00:00:00.00 208676  56 Team Specialized Racing
DNSJesse Mendonca   San Jose, CA00:00:00.00 196277  66 NorCal Elite Cycling
DNSRobert Evans   Scotts Valley, CA00:00:00.00 72893  73 Unattached
DNSGraham Simpson   Carmel Valley, CA00:00:00.00 65800  72 Webcor/Alto Velo

Men - Cat 1/2/3 - Master - 35-99

 Place Points NameCity, StateTime USAC #BibTeam
1524.15Dylan Casey   Menlo Park, CA00:00:00.00 41588  246 
2526.27Christopher Phipps   San Francisco, CA00:00:00.00 233623  227 Morgan Stanley/24 Hr Fitness/S
3528.40Lawrence Nolan   Fremont, CA00:00:00.00 26205  224 Team Specialized Racing Master
4530.52Alex Holtz   Sacramento, CA00:00:00.00 61440  214 EMC2-Felt
5532.65Scott Fonseca   Fair Oaks, CA00:00:00.00 204715  211 Zenn Cycling Team
6534.77Stephen Cassani   Portola Valley, CA00:00:00.00 198619  206 Team Specialized Racing
7536.90Scott Cole   Oakland, CA00:00:00.00 207165  207 Kaiser Permanente/ Team Oakland Cycling
8539.02Wyatt Weisel   Menlo Park, CA00:00:00.00 208676  231 Team Specialized Racing
9541.14Jeff Poulsen   Arnold, CA00:00:00.00 28533  237 VOS Racing
10543.27Mark Caldwell   Moraga, CA00:00:00.00 40039  248 Morgan Stanley Cycling Team
11545.39Richard Juarez   Mill Valley, CA00:00:00.00 71186  217 VOS Racing
12547.52Forrest Koenig   San Anselmo, CA00:00:00.00 63475  244 TEAM CLIF BAR Cycling
13549.64Daryl Spano   Fremont, CA00:00:00.00 146243  229 SJBC/SugarCRM
14551.76Craig Roemer   Petaluma, CA00:00:00.00 80925  228 TeamSpecializedRacing Masters
15553.89Michael Fee   Oakland, CA00:00:00.00 75599  235 Team Oakland Cycling
16556.01Ramon Alarcon   Los Gatos, CA00:00:00.00 240484  201 SJBC/SugarCRM
17558.14Paul DeBacker   Mountain View, CA00:00:00.00 168436  208 Alto Velo
18560.26Max Mack   Sacramento, CA00:00:00.00 45629  241 
19562.39Gregg Betonte   Truckee, CA00:00:00.00 255414  205 Specialized /Sierra Nevada
20564.51robert nichols   Lockeford, CA00:00:00.00 255632  222 Pacific State Bank cycling tea
21566.63Edward Nicolson   San Francisco, CA00:00:00.00 221687  223 CRC/Poggio
22568.76Shawn Oliver   St. Helena, CA00:00:00.00 46241  239 Morgan Stanley Cycling Team
23570.88Kalen Gruber   Los Altos Hills, CA00:00:00.00 49467  240 Los Gatos Bicycle Racing Club
24573.01Peter Allen   Fair Oaks, CA00:00:00.00 46996  202 Specialized/Sierra Nevada
25575.13Christopher Baker   Sacramento, CA00:00:00.00 47424  204 EMC2/FELT
26577.25Paul Estabrook   Sacramento, CA00:00:00.00 93626  209 EMC2-Felt
27579.38Joe Saunders   San Anselmo, CA00:00:00.00 47412  245 Morgan Stanley Cycling Team
28581.50Sarah Bamberger (1 - Cat1)   San Francisco, CA00:00:00.00 179772  238 Unattached
29583.63Alison Rosenthal (1 - Cat2)   Palo Alto, CA00:00:00.00 199109  243 Team TIBCO
30585.75Mike Kelly   Rio Linda, CA00:00:00.00 138145  218 Zenn Cycling Team
31587.88Dave Kause   Sacramento, CA00:00:00.00 175157  236 Zenn Cycling Team
32590.00Michael Audley   Berkeley, CA00:00:00.00 130080  203 Team Specialized Racing
DNSMANUEL FLORES   00:00:00.00  210 NA
DNSSteven Griffiths   Granite Bay, CA00:00:00.00 14196  212 Specialized/Sierra Nevada
DNSMarco Hellman   San Francisco, CA00:00:00.00 123885  213 TeamSpecializedRacing Masters
DNSDennis Hopp   San Jose, CA00:00:00.00 54895  215 Easton/Specialized
DNSAaron Hunter   Santa Cruz, CA00:00:00.00 215194  216 SJBC/Sugar CRM
DNSBrian Laird   Menlo Park, CA00:00:00.00 20154  219 Labor Power
DNSRichard Maile   Sacramento, CA00:00:00.00 153697  220 TEAM SHORT BUS
DNSSteven Mielich   San Jose, CA00:00:00.00 136178  221 SJBC/SugarCRM
DNSCraig Parker   Mill Valley, CA00:00:00.00 127588  225 ZteaM
DNSBrian Peterson   Santa Cruz, CA00:00:00.00 196252  226 Webcor/Alto Velo
DNSMax Thompson   San Anselmo, CA00:00:00.00 80642  230 Morgn Stanley/24hr fitness/Spe
DNSChristopher Willis   Napa, CA00:00:00.00 90322  232 Clover
DNSChris Wire   Saratoga, CA00:00:00.00 152176  233 SJBC/SugarCRM
DNSPeter Wood   Cupertino, CA00:00:00.00 196669  234 Z TeaM
DNSGrant Foster (Cat3)   San Jose, CA00:00:00.00 110279  247 San Jose Bicycle Club
DNSKyle Glerum   Burlingame, CA00:00:00.00 195470  249 Pedali Alpini Inc.
DNSJeffery Selzer (Cat2)   Mountain View, CA00:00:00.00 50068  242 

Men - Cat 3

 Place Points NameCity, StateTime USAC #BibTeam
1540.00Andrew Hammond   Morgan Hill, CA00:00:00.00 191844  318 Specialized
2541.19Greg Gomez   Mountain View, CA00:00:00.00 226091  358 Webcor/Alto Velo
3542.38Peter Taylor   Walnut Creek, CA00:00:00.00 219859  343 Tieni Duro
4543.57Aaron Hanna   San Jose, CA00:00:00.00 204722  319 Easton/SugarCRM/Specialized
5544.76Filip Vanacht   Los Altos, CA00:00:00.00 245198  347 Easton/SugarCRM/Specialized
6545.95Angelo DiGiovine   San Francisco, CA00:00:00.00 141326  309 Active Athlete / Squadra Ovest
7547.14Joel Shaffer   Los Altos Hills, CA00:00:00.00 208502  359 Team Specialized Racing
8548.33James Hardy   Oakland, CA00:00:00.00 80116  320 Cycle Sports/Trumer Pils
9549.52Scott Herring   Sausalito, CA00:00:00.00 236346  353 Touchstone Climbing
10550.71Aron Bonar   Mountain View, CA00:00:00.00 195327  354 Sycip/Schwalbe
11551.90Aaron Gallardo   Woodland Hills Ca00:00:00.00 160366  350 Active Athlete/Squadra Ovest
12David Uai   00:00:00.00  352 
13554.29Reed Maxwell   Golden, CO00:00:00.00 164136  360 Contra Costa Cycling Club
14555.48Connor Spencer   San Francisco, CA00:00:00.00 256539  341 Freewheel Bike Shop
15556.67Hunter Ziesing   Bel Tiburon, CA00:00:00.00 39478  357 ZteaM
16557.86Cyrus Behroozi   Menlo Park, CA00:00:00.00 40408  304 Page Mill Racing
17559.05Brandon Hill   Jensen Beach, FL00:00:00.00 238904  321 Team City
18560.24Ryan Prsha   San Jose, CA00:00:00.00 247068  332 Webcor/Alto Velo
19561.43Joshua Lerner   San Francisco, CA00:00:00.00 206346  328 Fusion
20562.62carmi Schulman   Seattle, WA00:00:00.00 200292  337 Active Athlete/Squadra Ovest
21563.81Dylan McReynolds   Berkeley, CA00:00:00.00 23832  329 Berkeley Bicycle Club (BBC)
22565.00Santiago Bolon   San Jose, CA00:00:00.00 195384  305 IC3
23566.19Stephen Kent   Mill Valley, CA00:00:00.00 90245  326 Freewheel Bike Shop
24567.38Michael Holt   Morgan Hill, CA00:00:00.00 75334  323 TBS Racing
25568.57Randall Smith   San Carlos, CA00:00:00.00 185237  339 Peninsula Velo/Kondra Systems
26569.76Daniel Tisdell   Phoenix, AZ00:00:00.00 188030  344 Specialized Juniors
27570.95Eric Zumwalt   Santa Rosa, CA00:00:00.00 53375  349 Whole Athlete Cycling Team
28572.14Josh Rennie   Reno, NV00:00:00.00 251736  334 ZteaM Cycling
29573.33Raymond Cogan   San Francisco, CA00:00:00.00 201255  307 Fusion Sport
30574.52Daniel Lam   Kalamazoo, MI00:00:00.00 239504  327 TBS Racing
31575.71Paul Cook   Lafayette, CA00:00:00.00 195716  308 Berkeley Bicycle Club
32576.90Michael Fee   Oakland, CA00:00:00.00 75599  313 Kaiser Permanente/Team Oakland
33578.10Ken Gallardo   Belmont, CA00:00:00.00 255453  316 Peninsula Velo/Kondra Systems
34579.29Scott Peradotto II   San Francisco00:00:00.00 190044  331 Fusion Sport
35580.48Tony Homes   Danville, CA00:00:00.00 210572  324 Wells Fargo Racing Team
36581.67Ilan Eyman   Berkeley, CA00:00:00.00 207671  312 Berkeley Bicycle Club (BBC)
37582.86Bradley Moore   San Mateo, CA00:00:00.00 85429  355 NorCal Elite Cycling
38584.05Adam Hodes   San Francisco, CA00:00:00.00 219706  322 Tieni Duro
39585.24Marshall Roberts   Oakland, CA00:00:00.00 236807  336 eden bicycles
40586.43Dan Tedford   Mountain View, CA00:00:00.00 196695  351 Active Athlete/Squadra Ovest
41587.62Patrice Gagnon   Daly City, CA00:00:00.00 205841  315 Peninsula Velo/Kondra Systems
42588.81Chris LaTraille   Oakland, CA00:00:00.00 219570  356 Active Athlete/Squadra Ovest
43590.00Shin Umeda   Sunnyvale, CA00:00:00.00 46023  346 Webcor/Alto Velo
DNSEdward Abeleven   Campbell, CA00:00:00.00 197005  301 Kaiser Permanente/Team Oakland
DNSDavid Acri   San Francisco00:00:00.00 233803  302 active athlete/squadra ovest
DNSPeter Bailey   Palo Alto, CA00:00:00.00 230238  303 Kovarus ABTA
DNSLance Cameron   Pacific Grove, CA00:00:00.00 5900  306 Don Chapin Monterey Bay Racing
DNSBenjamin Dodge   San Jose, CA00:00:00.00 178595  310 LGBRC-Specialized
DNSPaul Dyrwal   San Rafael, CA00:00:00.00 254245  311 ZTeam Cycling
DNSVince Ferguson   Little Rock, AR00:00:00.00 198849  314 Squadra
DNSDave Garcia   Dublin, CA00:00:00.00 161627  317 InfoVista Cycling Team
DNSStephen Janke   Davis, CA00:00:00.00 188217  325 Davis Bike Club
DNSDavid Nader   San Mateo, CA00:00:00.00 175914  330 Peninsula Velo
DNSJess Raphael   Napa, CA00:00:00.00 221460  333 VOS Racing
DNSKevin Rennie   Menlo Park, CA00:00:00.00 124208  335 Specialized/SBCU
DNSMark Slavonia   San Francisco, CA00:00:00.00 49355  338 Peninsula Velo
DNSSean Smith   Oakland, CA00:00:00.00 204018  340 Kaiser Permanente/Team Oakland
DNSMurray Swanson   Woodside, CA00:00:00.00 206144  342 Peninsula Velo/Kondra Systems
DNSBen Troy   San Jose, CA00:00:00.00 216312  345 TBS Racing
DNSPeter Wood   Cupertino, CA00:00:00.00 196669  348 Z TeaM

Men - Cat 3/4 - Master - 45-99

 Place Points NameCity, StateTime USAC #BibTeam
1539.97Darryl Smith   Pleasanton, CA00:00:00.00 33092  665 International Christian Cyclin
2540.93Shin Umeda   Sunnyvale, CA00:00:00.00 46023  671 Webcor/Alto Velo
3541.89David Schaefer   Hayward, CA00:00:00.00 219605  660 Peninsula Velo/Kondra Systems
4542.86robert nichols   Lockeford, CA00:00:00.00 255632  644 Pacific State Bank cycling tea
5543.82David Leece   San Luis Obispo, CA00:00:00.00 53397  634 Rock Solid Cyclery
6544.78Jamie Willin   Redwood City, CA00:00:00.00 38466  672 the olympic club
7545.74Hunter Ziesing   Bel Tiburon, CA00:00:00.00 39478  674 ZteaM
8546.70Steven Mielich   San Jose, CA00:00:00.00 136178  641 SJBC/SugarCRM
9547.67Dennis Pedersen   Santa Cruz, CA00:00:00.00 126404  648 Team Bicycle Trip
10548.63George Smith   Menlo Park, CA00:00:00.00 168005  666 Webcor/Alto Velo
11549.59Steven Palladino   Santa Rosa, CA00:00:00.00 195557  646 Fightin' Bobas
12550.55Theodore (Ted) Jaworski   Mountain View, CA00:00:00.00 141092  627 Webcor/Alto Velo
13551.52Doug Rappaport   San Francisco, CA00:00:00.00 198514  654 CRC Hill & Co.
14552.48James Langley   Santa Cruz, CA00:00:00.00 20326  632 Team Bicycle Trip
15553.44Richard Shields   Fremont, CA00:00:00.00 140693  663 Hammer Nutrition
16554.40Edgar Leano   St Cloud, FL00:00:00.00 224847  633 renowheelmen
17555.36Mark Edwards   Santa Cruz, CA00:00:00.00 236580  617 Team Bicycle Trip
18556.33Ron Callison   Danville, CA00:00:00.00 130870  610 VSRT/Livermore Cyclery
19557.29Geoffrey Drake   Aptos, CA00:00:00.00 9986  616 Team Bicycle Trip
20558.25Ken Doyle   Santa Barbara, CA00:00:00.00 9958  615 Team Chicken Ranch
21559.21Thomas Carpenter   Oakland, CA00:00:00.00 169740  613 Kaiser Permanente/TeamOakland
22560.17Alan Nielson   Dublin, CA00:00:00.00 236183  675 Contra Costa Cycling Club
23561.14Scott Martin   Scotts Valley, CA00:00:00.00 22722  638 Bike Trip
24562.10Mark Mastoras   San Bruno, CA00:00:00.00 117797  639 Active Athlete/Squadra Ovest
25563.06Jess Raphael   Napa, CA00:00:00.00 221460  653 VOS Racing
26564.02Zack Beekler   Redwood City, CA00:00:00.00 249741  605 Solgar Vitamin & Herb
27564.99Ross Tinline   San Carlos, CA00:00:00.00 35623  670 Peninsula Velo
28565.95Carmelo Rios   San Jose, CA00:00:00.00 261379  656 Fighin' Bobas
29566.91Carl Canaparo   San Ramon, CA00:00:00.00 212014  612 International Christian Cyclin
30567.87Tony Reid   Sacramento, CA00:00:00.00 29458  655 VOS Racing
31568.83Vladan Strbac   Scotts Valley, CA00:00:00.00 259261  668 Team Bicycle Trip
32569.80David Pettit   Martinez, CA00:00:00.00 63782  649 Mako/Mellow Motors
33570.76Thomas Feix   Moss Beach, CA00:00:00.00 11403  619 Peninsula Velo Cycling Club
34571.72Alex Blease   San Jose, CA00:00:00.00 155963  607 TBS Racing Team
35572.68Stephen Harris   San Francisco, CA00:00:00.00 205958  623 Active Athlete/Squadra Ovest
36573.64Samuel Campbell   San Francisco, CA00:00:00.00 242549  611 Third Pillar
37574.61Joe Platin   Santa Cruz, CA00:00:00.00 256834  650 Team Bicycle Trip
38575.57Garry Birch   Dublin, CA00:00:00.00 136971  606 Team Fremont / Sugar CRM
39576.53Martin Wolff   Carmel, CA00:00:00.00 203646  673 VOS Racing
40577.49John Livinal (1 - Cat4)   Merced, CA00:00:00.00 142107  636 Merlock
41578.45Russell McCrary   San Ramon, CA00:00:00.00 253276  640 ZteaM Cycling
42579.42Michael Rizzo   Morgan Hill, CA00:00:00.00 59049  657 SJBC/SugarCRM
43580.38Rick Sutton   Redwood City, CA00:00:00.00 270407  669 Unattached
44581.34Douglas Gonda   Truckee, CA00:00:00.00 13594  621 Reno Wheelmen
45582.30Alan Nichols   Corte Madera, CA00:00:00.00 193591  643 BikeRx
46583.27royce fraley   Santa Rosa, CA00:00:00.00 267030  620 unattached
47584.23Franz Broz   Pebble Beach, CA00:00:00.00 155801  609 VOS Racing
48585.19Edward Price   Aptos, CA00:00:00.00 84614  652 Team Bicycle Trip
49586.15Mark Patten (1 - Cat3)   San Jose, CA00:00:00.00 92552  647 webcor/alto velo
50587.11Leon Iannarelli   Vacaville, CA00:00:00.00 49838  626 team precision
51588.08Albert Barreto   Monterey, CA00:00:00.00 195743  603 VOS Racing
52589.04Phillip Heiman   Penngrove, CA00:00:00.00 204100  624 Colavita/Sutterhome-Norcal
53590.00Michael Coppolino   San Francisco, CA00:00:00.00 237772  614 Trips for Kids
DNSRandy Armstrong   Morgan Hill, CA00:00:00.00 47828  601 SJBC/SugarCRM
DNSEarle Baker   San Jose, CA00:00:00.00 204436  602 TBS Racing
DNSDouglas Bauer   San Francisco, CA00:00:00.00 197821  604 GS Lombardi Sports
DNSGreg Bollella   Redwood City, CA00:00:00.00 235126  608 Webcor / Alto Velo
DNSKarl Ehlert   Redwood City, CA00:00:00.00 10559  618 WEBCOR/ALTO VELO
DNSPaul Gossi   Reno, NV00:00:00.00 13762  622 Liquid Fitness Reno Racing
DNSJohn Hostetler   Boulder Creek, CA00:00:00.00 243622  625 SJBC/SugarCRM
DNSDavid Kavanaugh   Danville, CA00:00:00.00 55102  628 Webcor/Alto Velo
DNSLaurence Knott   Larkspur, CA00:00:00.00 19485  629 Olympic Club
DNSJonathan Laine   Truckee, CA00:00:00.00 256153  630 Specialized/Sierra Nevada
DNSMark Lange (Cat3)   Woodside, CA00:00:00.00 208336  631 Monta Vista Velo
DNSKurt Liittschwager (Cat4)   Redwood City, CA00:00:00.00 196807  635 Webcor/Alto Velo
DNSRichard Maile   Sacramento, CA00:00:00.00 153697  637 TEAM SHORT BUS
DNSMark Nakamura   Pacifica, CA00:00:00.00 179927  642 Kaiser Permanente/Team Oakland
DNSDaniel Onorato   Santa Barbara, CA00:00:00.00 183641  645 Team ChickenRanch
DNSJohn Pollard   Santa Cruz, CA00:00:00.00 48193  651 Team Bicycle Trip
DNSJames Rosberg   San Francisco, CA00:00:00.00 215977  658 Roaring Mouse Cycles
DNSSteven Rosen (Cat4)   Scotts Valley, CA00:00:00.00 264162  659 Team Bicycle Trip
DNSDan Scrivner   Los Altos, CA00:00:00.00 78689  661 Six Fifty Racing
DNSDon Sheff   Mill Valley, CA00:00:00.00 229033  662 unattached
DNSBriant Smith   Santa Rosa, CA00:00:00.00 65697  664 Fightin' Bobas
DNSFrederick Stamm   San Mateo, CA00:00:00.00 195461  667 Peninsula Velo/Kondra Systems

Men - Cat 4

 Place Points NameCity, StateTime USAC #BibTeam
1540.00William (Billy) Crane   Mountain View, CA00:00:00.00 138129  416 Webcor/ Alto Velo
2540.76Matthew Talbott   San Jose, CA00:00:00.00 255075  489 Clean Racer
3541.52Nick Purtscher   Ben Lomond, CA00:00:00.00 28872  468 HRS/Rock Lobster
4542.27Hendrik Pohl   San Francisco, CA00:00:00.00 207753  466 Fusion Sport USA
5543.03Mark Rampton   San Francisco, CA00:00:00.00 239473  470 Third Pillar
6543.79Nole Studley   Oakland, CA00:00:00.00 251301  484 Roaring Mouse Cycles
7544.55Brian Johnston   San Francisco, CA00:00:00.00 237599  440 Kaiser Permanente/Team Oakland
8545.30Keith Jordon   Hayward, CA00:00:00.00 254515  441 Berkeley Bicycle Club (BBC)
9546.06Samuel Milroy   Mountain View, CA00:00:00.00 263091  452 Webcor Alto Velo
10546.82David Parrish   San Francisco, CA00:00:00.00 233830  464 Roaring Mouse Cycles
11547.58Conrad Snover   Truckee, CA00:00:00.00 196378  481 Cyclepaths/Wild Cherries Racin
12548.33Toby Long   Oakland, CA00:00:00.00 262539  449 Kaiser Permanente / Team Oakla
13549.09Josh LaGrange   Bend, OR00:00:00.00 201330  444 Form Fitness
14549.85Benjamin Tate   Sausalito, CA00:00:00.00 254009  490 Team CS
15550.61Rich Desmond   Penngrove, CA00:00:00.00 247360  419 Colavita/Sutter Home-Norcal
16551.36Ryan Nickelson   Danville, CA00:00:00.00 227002  458 Wells Fargo Racing Team
17552.12Eric Gebhardt   San Mateo, CA00:00:00.00 213236  427 Third Pillar
18552.88Robert Luttrell   San Francisco, CA00:00:00.00 196333  450 Fusion Sport
19553.64Jason Hanchett   Albany, CA00:00:00.00 255669  430 Berkeley Bicycle Club (BBC)
20554.39Floyd Long   Alameda, CA00:00:00.00 256125  448 Kaiser
21555.15Caden Taylor   Tucson, AZ00:00:00.00 240890  491 form fitness
22555.91Willem Voorthuijsen   Morristown, NJ00:00:00.00 259694  497 Active Athlete / Squadra Ovest
23556.67James Hayden   San Francisco, CA00:00:00.00 250790  432 Fusion Sport
24557.42Bryan King   Santa Cruz, CA00:00:00.00 235330  442 Team Bicycle Trip
25558.18Kent Johnson   Folsom, CA00:00:00.00 259152  439 Team Ride For A Reason
25558.94Alejandro Quintero   Belmont, CA00:00:00.00 220245  469 Peninsula Velo/Kondra Systems
26559.70Michael Campbell   Berkeley, CA00:00:00.00 231290  411 NA
27560.45Mark Herynk   Redwood City, CA00:00:00.00 157123  433 Webcor/Alto Velo
28561.21Chris Isley   El Granada, CA00:00:00.00 253814  437 Webcor/Alto velo
29561.97Isaias Job   Fremont, CA00:00:00.00 207885  438 Roaring Mouse Cycles
30562.73Ryan Byars   Durham, NC00:00:00.00 266612  409 Roaring Mouse Cycles
31563.48Kieran Cox   Oakland, CA00:00:00.00 244305  415 Kaiser Permanente/ Team Oaklan
32564.24Joakim Vinberg   Cupertino, CA00:00:00.00 226014  475 Kovarus/ABTA
33565.00Daniel Murray   San Francisco, CA00:00:00.00 236403  457 SF Sport and Spine Pt Racing
34565.76Timothy Bisson   San Jose, CA00:00:00.00 221552  405 Fremont Freewheelers
35566.52Colby Elliot   San Diego , CA00:00:00.00 203446  479 Chico Corsa Cycling Team
36567.27Jason Turner   Redwood City, CA00:00:00.00 255158  478 Kovarus/ABTA
37568.03C Jeffrey Bramlett   Palo Alto, CA00:00:00.00 202272  406 Third Pillar
38568.79Michael Lampe   Los Gatos, CA00:00:00.00 201886  446 Peninsula Velo/Kondra Systems
39569.55Valdimir Sayno   San Jose, CA00:00:00.00 270447  477 SJBC/SugarCRM
40570.30Benjamin Bryant   Santa Rosa, CA00:00:00.00 247533  408 Chico Corsa
41571.82Ed Lai   Oakland, CA00:00:00.00 204450  445 Kaiser Permanente / Team Oakla
41571.06Alexander Yermolovich   Santa Clara, CA00:00:00.00 220894  745 UC - Irvine Cycling Bike Club
42572.58Cullen Wojcik   Knoxville, TN00:00:00.00 205491  499 Fusion Sport
43573.33James Rusk   Berkeley, CA00:00:00.00 197430  476 Kaiser
44574.09Chai Montgomery   San Francisco, CA00:00:00.00 220242  454 godspeed
45574.85Matthew Sullivant   Redwood City, CA00:00:00.00 235630  486 Peninsula Velo/Kondra Systems
46575.61Jeff Remer   El Cerrito, CA00:00:00.00 267197  471 Roaring Mouse Cycles
47576.36Benjamin Stern   Mequon, WI00:00:00.00 238365  483 Roaring Mouse Cycles
48577.12Barrett Ausman   San Jose, CA00:00:00.00 186327  402 Webcor/Alto Velo
49577.88Bret Roberts   San Francisco, CA00:00:00.00 271061  472 Easton/SugarCRM/Specialized
50578.64Chad Cheadle   Petaluma, CA00:00:00.00 209823  413 Colavita/Sutter Home-Norcal
51579.39David Mayer   Portola Valley, CA00:00:00.00 120501  451 Third Pillar
52580.15Robert Orcutt   Scotts Valley, CA00:00:00.00 269340  462 Webcor / alto velo
53580.91Kea Hunt   Oakland, CA00:00:00.00 251869  436 Berkeley Bicycle Club (BBC)
54581.67Ralph King   San Mateo, CA00:00:00.00 52299  443 third Pillar
55582.42Mitch Bramlett   Santa Cruz, CA00:00:00.00 4611  407 Third Pillar
56583.18Tim Fehon   San Francisco, CA00:00:00.00 263093  424 NA
57583.94George Thoma   Oakland, CA00:00:00.00 234104  492 Cycle Sports - Trumer Pils
58584.70Andrew Fox   Mill Valley, CA00:00:00.00 258267  425 Fusion Sport
59585.45Neil Bartley   San Jose, CA00:00:00.00 209268  404 Berkeley Bicycle Club (BBC)
60UNKNOWN RIDER   00:00:00.00  ??? 
61586.97Beau Sullens   Campbell, CA00:00:00.00 228771  485 Specialized
62587.73Lucas Leblow   Clayton, CA00:00:00.00 257205  447 Tieni Duro Junior Cycling Deve
63588.48Samuel Parker   San Francisco, CA00:00:00.00 88610  463 Roaring Mouse Cycles
64589.24Samuel Campbell   San Francisco, CA00:00:00.00 242549  412 Third Pillar
65590.00Steven Woo   Los Altos, CA00:00:00.00 38840  500 Easton/SugarCRM/Specialized/LG
DNSMatt Abbott   Santa Rosa, CA00:00:00.00 260224  401 2 WHEEL RACING
DNSJoshua Ballesteros   Brentwood, CA00:00:00.00 262160  403 Third Pillar
DNSAndrew Campbell   Oakland, CA00:00:00.00 231736  410 Berkeley Bicycle Club
DNSAndy Copleman   Campbell, CA00:00:00.00 208619  414 NA
DNSKevin Davis   Palo Alto, CA00:00:00.00 257793  417 QuadCycles
DNSLei Deng   Daly City, CA00:00:00.00 239454  418 Third Pillar
DNSJustin Dowdall   San Francisco, CA00:00:00.00 200172  420 Metromint
DNSKen Doyle   Santa Barbara, CA00:00:00.00 9958  421 Team Chicken Ranch
DNSAndrew Elisan-Visperas   Alameda, CA00:00:00.00 218599  422 Third Pillar
DNSEdward Falsken   Hayward, CA00:00:00.00 259659  423 Fremont Freewheelers Race Team
DNSMorgan Frank   San Francisco, CA00:00:00.00 208414  426 kovarus/squadra ovest
DNSAlexander Gee   Danville, CA00:00:00.00 219922  428 Tieni Duro
DNSDustin Gibbs   Redwood City, CA00:00:00.00 244176  429 Peninsula Velo/Kondra Systems
DNSSean Handel   Moss Beach, CA00:00:00.00 219065  431 Webcor / Alto Velo
DNSKalani Hines   San Francisco, CA00:00:00.00 219316  434 metromint cycling
DNSTyron Hooper   San Francisco, CA00:00:00.00 251276  435 Fusion Sport
DNSMaurice Monge   San Jose, CA00:00:00.00 257119  453 SJBC/SugarCRM
DNSRobert Moore   Portland, OR00:00:00.00 237414  455 Active Athlete/Squadra Ovest
DNSAlvaro Mosquera   Sacramento, CA00:00:00.00 236809  456 Berkeley Bicycle Club (BBC)
DNSMark Nielsen   Berkeley, CA00:00:00.00 233923  459 Touchstone Climbing
DNSKenneth Norton   San Carlos, CA00:00:00.00 215389  460 Peninsula Velo/Kondra Systems
DNSDaniel Onorato   Santa Barbara, CA00:00:00.00 183641  461 Team ChickenRanch
DNSErnie Perreira   Sebastopol, CA00:00:00.00 27775  465 2wheelsport
DNSMark Polizzi   Austin, TX00:00:00.00 273630  467 colavita- sutter home
DNSJames Rosberg   San Francisco, CA00:00:00.00 215977  473 Roaring Mouse Cycles
DNSMichael Coppolino   San Francisco, CA00:00:00.00 237772  474 Trips for Kids Racing Team
DNSStar Stevenson   Santa Rosa, CA00:00:00.00 236074  480 2 Wheel Racing
DNSWilliam Sinkford   Redding, CA00:00:00.00 256096  482 Godspeed Courier
DNSTim Sutliff   Walnut Creek, CA00:00:00.00 258632  487 Synergy-Taleo Racing
DNSaris polyzos   Berkeley, CA00:00:00.00 273566  488 Team Oakland Cycling
DNSKevin Threm   Aptos, CA00:00:00.00 255687  493 NA
DNSPeter Tousignant   Belmont, CA00:00:00.00 231855  494 third pillar
DNSMatthew Triska   San Francisco, CA00:00:00.00 257229  495 Active Athlete/Squadra Ovest
DNSScott Uyeda   Sunnyvale, CA00:00:00.00 105157  496 NA
DNSAndrew Weiner   San Francisco, CA00:00:00.00 119412  498 Roaring Mouse Cycles
DNSAlexander Yermolovich   Santa Clara, CA00:00:00.00 220894  501 UCI Cycling

Men - Cat 4 - Master - 35-99

 Place Points NameCity, StateTime USAC #BibTeam
1540.00Tyron Hooper   San Francisco, CA00:00:00.00 251276  529 Fusion Sport
2540.71Travis Ma   Belmont, CA00:00:00.00 21959  548 Peninsula Velo/Kondra Systems
3541.43Robert Luttrell   San Francisco, CA00:00:00.00 196333  547 Fusion Sport
4542.14John Ormsby   Berkeley, CA00:00:00.00 219328  567 Touchstone Climbing
5542.86Bill Beers   Danville, CA00:00:00.00 236371  508 Wells Fargo Racing Team
6543.57Adam Kersgard   Mill Valley, CA00:00:00.00 196248  539 CRC/Poggio
7544.29Giovanni Campisi   Santa Rosa, CA00:00:00.00 256021  517 Precision Bicycles/Team Precis
8545.00Michael Campbell   Berkeley, CA00:00:00.00 231290  516 NA
9545.71Joe Amon   San Rafael, CA00:00:00.00 71366  503 ZteaM Cycling
10546.43Matt Yaden   Danville, CA00:00:00.00 238250  599 Wells Fargo Racing Team
11547.14Eric Burgener   Morgan Hill, CA00:00:00.00 230933  515 TBS Racing
12547.86Steven Woo   Los Altos, CA00:00:00.00 38840  597 Easton/SugarCRM/Specialized/LG
13548.57Bret Martin   Oakland, CA00:00:00.00 60446  552 Sycip
14550.00Andreas Vogel   San Francisco, CA00:00:00.00 237199  593 CyclingCalifornia.Com
14549.29Jeremy Sparks   Aurora, CO00:00:00.00 246296  583 Eden Bicycles
15550.71Morgan Fletcher   Oakland, CA00:00:00.00 205499  523 Kaiser Permanente / Team Oakla
16551.43Andrew Tilin   Austin, TX00:00:00.00 93674  589 Touchstone Climbing
17552.14Gregory Bennett   San Francisco, CA00:00:00.00 205105  509 Dolce Vita
18552.86Bill Laddish   Castro Valley, CA00:00:00.00 20105  542 NA
19553.57Stacey Sell   Prunedale, CA00:00:00.00 235653  580 Fox Racing Factory Team
20554.29Andrew Posselt   Mill Valley, CA00:00:00.00 216827  571 Active Athlete/Squadra Ovest
21555.00johannes peters   Danville, CA00:00:00.00 252307  570 Wells Fargo
22555.71Allen Brumm   Foster City, CA00:00:00.00 195431  513 Webcor/Alto Velo
23556.43Mitch Bramlett   Santa Cruz, CA00:00:00.00 4611  511 Third Pillar
24557.14Kiernan McGuire   Mill Valley, CA00:00:00.00 211423  554 Dolce Vita Cycling
25557.86Frederick Martin   Oakland, CA00:00:00.00 255689  553 Kaiser Permanente / Team Oakla
26558.57Matthew Smith   Emeryville, CA00:00:00.00 228089  582 East Bay Velo Club
27559.29Lloyd Ranola   Oakland, CA00:00:00.00 198425  572 Active Athlete/Squadra Ovest
28560.00Gray Williams   Vallejo, CA00:00:00.00 184922  596 Eagle Racing Team
29560.71Allen Wulczynski   San Jose, CA00:00:00.00 271874  598 SJBC/SUGAR CRM
30561.43Paul Sechrist   San Jose, CA00:00:00.00 212035  579 Webcor/Alto Velo
31562.14Robbie Abundis   Aptos, CA00:00:00.00 89807  501 THE BICYCLE TRIP
32562.86Graeme Macalister   San Francisco, CA00:00:00.00 227221  549 NA
33UNKNOWN RIDER   00:00:00.00  66 
33563.57Jon Orban   Burlingame, CA00:00:00.00 240114  566 third pillar
34565.00Mac Heebner   Oakland, CA00:00:00.00 252751  527 Dolce Vita Cycling
35565.71Devin Koch   Truckee, CA00:00:00.00 260704  541 Dolce Vita
36Thornton Weiler   00:00:00.00  531 Team Oakland
37567.14Jesse Baliscao   Aptos, CA00:00:00.00 271991  506 SJBC/SugarCRM
38567.86Jagjit Johal   San Mateo, CA00:00:00.00 259595  535 Peninsula Velo/Kondra Systems
39568.57Ed Lai   Oakland, CA00:00:00.00 204450  543 Kaiser Permanente / Team Oakla
40569.29David Metzinger   Livermore, CA00:00:00.00 230083  556 Now Direct
41570.00Ron Nelson   Martinez, CA00:00:00.00 257207  561 NA
42570.71Todd Manley   San Jose, CA00:00:00.00 253905  550 SJBC/SugarCRM
43571.43Tim Sutliff   Walnut Creek, CA00:00:00.00 258632  586 Synergy-Taleo Racing
44572.14Erik Salander   Belmont, CA00:00:00.00 195443  577 Peninsula Velo/Kondra Systems
45572.86Kurt Erickson   Oakland, CA00:00:00.00 220639  522 Team Nomad
46573.57Matt Bokemeier   San Jose, CA00:00:00.00 254319  510 SJBC/SugarCRM
47574.29Douglas Aldrich   San Jose, CA00:00:00.00 245255  502 SJBC/SugarCRM
48575.00Paul O'Reilly   South San Francisco, CA00:00:00.00 155042  565 Peninsula Velo Kondra systems
49575.71Nicholas Lozovsky   San Francisco, CA00:00:00.00 233955  546 Dolce Vita Cycling
50576.43Dennis Baker   Sacramento, CA00:00:00.00 255279  505 Sacramento Golden Wheelmen
51577.14Raymond Gildea   Emerald Hills, CA00:00:00.00 133970  525 Peninsula Velo/Kondra Systems
52577.86James Rosberg   San Francisco, CA00:00:00.00 215977  575 Roaring Mouse Cycles
53578.57Adam Waskow   Fairfax, CA00:00:00.00 219104  594 Whole Athlete
54579.29Lee Millon   Winters, CA00:00:00.00 254073  557 Davis Bike Club
55580.00Victor Furr   Pleasanton, CA00:00:00.00 96225  524 Now Direct
56580.71Anthony Eng   El Cerrito, CA00:00:00.00 245065  574 Team Oakland Cycling
57581.43Christopher Mink   Richmond, CA00:00:00.00 232894  558 Synergy - Taleo Racing
58582.14Stephen Nishimura   Mill Valley, CA00:00:00.00 238448  563 Dolca Vita Cycling
59582.86Gino Cetani   San Jose, CA00:00:00.00 57337  518 NA
60583.57Louis Toba   Palo Alto, CA00:00:00.00 56384  590 Webcor Alto Velo
61584.29Gregg Roh   Sacramento, CA00:00:00.00 58416  576 Team City
62585.00Gerald Jeffs   Dublin, CA00:00:00.00 235909  534 Team CS
63585.71Dave Dunkley   Clayton, CA00:00:00.00 195560  521 Wells Fargo Racing Team
64586.43Richard Jones   Oakland, CA00:00:00.00 122040  537 Oakland Yellow Jackets
65587.14Michael Boehme   Windsor, CA00:00:00.00 252576  536 Colavita Racing Inc.
66587.86Mark Pendleton   Martinez, CA00:00:00.00 242689  569 Wells Fargo Racing Team
67588.57Jeff Musser   Mill Valley, CA00:00:00.00 236864  560 Active Athlete/Squadra Ovest
68589.29Russell Hands   Benicia, CA00:00:00.00 136432  526 Eagle Racing Team
69590.00Hal Sloane   Davis, CA00:00:00.00 171611  581 Davis Bike Club
DNSDave Anderson   Mountain View, CA00:00:00.00 242552  504 Kaiser
DNSPhilip Barberi   San Ramon, CA00:00:00.00 235672  507 Wells Fargo Racing Team
DNSDaniel Brasse   San Mateo, CA00:00:00.00 245111  512 Third Pillar
DNSmike brunetti   Escalon, CA00:00:00.00 273437  514 NA
DNSLeon D'Aquino   Foster City, CA00:00:00.00 231422  519 Pen Velo
DNSDavid Douglas   Pleasanton, CA00:00:00.00 195436  520 InfoVista Cycling Team
DNSPaul Henderson   Livermore, CA00:00:00.00 254491  528 Now Direct
DNSEric Hovland   Danville, CA00:00:00.00 42891  530 Berkeley Bicycle Club
DNSMvkham Connolly   00:00:00.00  532 Touchstone Climbing
DNSReed Jackson   Sacramento, CA00:00:00.00 96947  533 Team City
DNSRaleigh Kay   Tracy, CA00:00:00.00 209395  538 Now Direct
DNSKyle Klopfer   Mill Valley, CA00:00:00.00 219025  540 ZteaM
DNSWarren Lane   Lafayette, CA00:00:00.00 227316  544 Synergy-Taleo Racing
DNSGregg Lehman   Vacaville, CA00:00:00.00 250959  545 Precision Bicycles / Team Prec
DNSAdam Martin   Antioch, CA00:00:00.00 57185  551 InfoVista Cycling Team
DNSBrad McKenzie   San Rafael, CA00:00:00.00 23629  555 ZteaM/3 Ring Cycles
DNSWade Morgan   Fresno, CA00:00:00.00 238135  559 FresnOakland
DNSRobert Nerrie   Redwood City, CA00:00:00.00 221742  562 
DNSStephen Nowicki   Davis, CA00:00:00.00 219022  564 Davis Bike Club
DNSJuan Ortiz   Castro Valley, CA00:00:00.00 26838  568 Fusion Sport
DNSCory Roay   Belmont, CA00:00:00.00 191125  573 Pen Velo/Kondra Systems
DNSFred Schnaars   Davis, CA00:00:00.00 65032  578 Davis Bike Club
DNSKristopher Spyrka   Alamo, CA00:00:00.00 207144  584 Synergy-Taleo
DNSChristian Thompson   El Cerrito, CA00:00:00.00 237306  587 Kaiser Permanente / Team Oakla
DNSKevin Threm   Aptos, CA00:00:00.00 255687  588 NA
DNSPeter Tousignant   Belmont, CA00:00:00.00 231855  591 third pillar
DNSRomeo Uriarte   Orinda, CA00:00:00.00 262503  592 Berkeley Bicycle Club
DNSThornton Weiler   Alameda, CA00:00:00.00 147592  595 Cycle Sport/Trumer Pils
DNSBrian Yumae   Berkeley, CA00:00:00.00 254838  600 SF Sport & Spine Pt Racing
DNSSteve Stein   San Francisco, CA00:00:00.00 196880  585 Berkeley Bicycle Club

Men - Cat 5

 Place Points NameCity, StateTime USAC #BibTeam
1540.00Shiori Sasaki   San Francisco, CA00:00:00.00 238058  187 Berkeley Bicycle Club
2541.14Greg McQuaid   San Francisco, CA00:00:00.00 249424  178 SJBC/SugarCRM
3542.27Tom Vanderheiden   Pleasant Hill, CA00:00:00.00 263253  193 Wells Fargo Racing Team
4543.41Jake Goldfield   Mountain View, CA00:00:00.00 273814  169 Easton/SugarCRM/Specialized
5544.55Scott Penzarella   Mill Valley, CA00:00:00.00 268482  185 Bike-Rx
6545.68Anthony Coando   San Francisco, CA00:00:00.00 170101  155 Active Athlete/Squadra Ovest
7John ELLIS   00:00:00.00  160 NA
8547.95Jason Snovel   Sacramento, CA00:00:00.00 268577  190 Davis Bike Club
9549.09Tryon Woods   Providence, RI00:00:00.00 42850  198 Team CS
10UNKNOWN RIDER   00:00:00.00  121 
11551.36Julio Cesar Esqueda   Oakland, CA00:00:00.00 272384  161 Berkeley Bicycle Club
12552.50benjamin joplin   Alamo, CA00:00:00.00 273316  175 NA
13553.64Christopher Bosch   San Francisco, CA00:00:00.00 261766  153 team burley
14554.77Paul Frank   Oakland, CA00:00:00.00 256197  165 NA
15555.91Matthew Lucero   San Francisco, CA00:00:00.00 267000  177 NA
16557.05John Hansen   Danville, CA00:00:00.00 113380  173 wells fargo racing team
17558.18Jon Jordan   Santa Rosa, CA00:00:00.00 246723  176 Fightin' Bobas
18559.32Matthew Werner   Santa Cruz, CA00:00:00.00 271509  197 Team Bicycle Trip
19Toby COSTELLO   00:00:00.00  156 NA
20561.59N/A   Oakland, CA00:00:00.00 237905  183 NA
21562.73Luke Ashcraft   San Francisco, CA00:00:00.00 222002  151 dolce vita
22563.86Stefano Moro   Burlingame, CA00:00:00.00 259912  181 Peninsula Velo / Kondra System
23565.00Steven Ohlhaber   Chicago00:00:00.00 223376  184 Dolce Vita Racing
24566.14David Gurley   Eugene, OR00:00:00.00 228878  171 team burley
25567.27Ross Trenary   Oakland, CA00:00:00.00 255259  191 Freewheel Bike Shop
26568.41Brian Halkett   Cameron Park, CA00:00:00.00 265702  172 TeamBicycleChef - Bio Bar
27569.55David Villalpando   Sunnyvale, CA00:00:00.00 237542  179 Unattached
28570.68Rudiger Schwartz   Palo Alto, CA00:00:00.00 237637  188 California Giant
29571.82Geoffrey Kwan   Alameda, CA00:00:00.00 240055  194 Team Oakland Cycling
30572.95Robert Montague   Aptos, CA00:00:00.00 276007  180 Team Bicycle Trip
31574.09stephen Hughes   Santa Rosa, CA00:00:00.00 265627  174 Stephen Hughes
32575.23Matt Abdalah   Los Altos, CA00:00:00.00 224627  150 NA
33576.36Ray Tofolo   San Francisco, CA00:00:00.00 272998  152 Dolce Vita Cycling
34577.50Don Daniel   San Francisco, CA00:00:00.00 235169  157 NA
35578.64Richard Warner   Sunnyvale, CA00:00:00.00 268645  195 SJBC/SugarCRM
36579.77Gebhard Ebenhoech   Mountain View, CA00:00:00.00 253107  159 Third Pillar
37580.91AJ Snovel   Sacramento, CA00:00:00.00 272559  189 Davis Bike Club
38582.05Ivan Poddubnyy   San Jose, CA00:00:00.00 266310  186 Webcor/AltoVelo
39583.18Russell Fong   San Francisco, CA00:00:00.00 268538  164 East Bay Velo Club
40584.32Sean Broeder   Sunnyvale, CA00:00:00.00 274276  154 SJBC/SugarCRM
41585.45Robert Artigo   Foster City, CA00:00:00.00 266426  162 Unattached
42586.59Nicholas Tudoni   Burlingame, CA00:00:00.00 244476  192 Peninsula Velo/ Kondra Systems
43Matthew Chen   00:00:00.00  199 
44588.86Rod Fernandez   Dixon, CA00:00:00.00 265576  163 Davis Bike Club
45590.00Jeff Davies   Healdsburg, CA00:00:00.00 271781  158 Team CS
DNSRichard Gasaway   San Rafael, CA00:00:00.00 140089  166 NA
DNSRobert Gaukel   Santa Cruz, CA00:00:00.00 261233  167 Bicycle Trip
DNSEric Gneckow   Gilroy, CA00:00:00.00 275884  168 NA
DNSNick Grover   San Francisco, CA00:00:00.00 271351  170 Dolce Vita
DNSRene Villalpando   Oakland, CA00:00:00.00 242554  182 Unattached
DNSJames Berry   San Francisco, CA00:00:00.00 271681  196 Unattached
DNSDavid Mesa   Crockett, CA00:00:00.00 243257  721 

Women - Cat 4

 Place Points NameCity, StateTime USAC #BibTeam
1540.00Kim Ladd   Palo Alto, CA00:00:00.00 250460  716 Code 3 Racing
2541.28amy padula   San Francisco, CA00:00:00.00 255277  722 Touchstone Climbing
3542.56Jennifer Jordan   Brisbane , CA00:00:00.00 250459  714 Code 3 Racing
4543.85Linsey Weitzenberg   Seattle, WA00:00:00.00 268265  734 Metromint Cycling on Marin Bik
5545.13Vanessa deGier   Santa Rosa, CA00:00:00.00 255469  738 Touchstone Climbing
6546.41Daniela Becker   San Francisco, CA00:00:00.00 271980  705 Roaring Mouse Cycles
7547.69April Hamlin   El Dorado Hills, CA00:00:00.00 266244  713 Velo Bella
8548.97Heather Ireland   San Mateo, CA00:00:00.00 271966  739 Unattached
9550.26Marissa Axell   El Cerrito, CA00:00:00.00 269569  702 Roaring Mouse Cycles
10551.54Sonja Klein   Oakland, CA00:00:00.00 272558  715 Left Coast Racing Team
11552.82Lucia Mokres   Redwood City, CA00:00:00.00 262113  718 Easton/SugarCRM/Specialized
12554.10Cheryl Shwe   San Francisco, CA00:00:00.00 271152  727 ZGirl
13555.38Margaret Winder   Lafayette, CA00:00:00.00 237600  735 Metromint Cycling on Marin Bik
14556.67Alice Pierce   Oakland, CA00:00:00.00 271451  723 Metromint Cycling on Marin Bik
15557.95Mason Cornelius   Dublin, CA00:00:00.00 268258  737 Code Three Womens Cycling
16559.23Leslie Creed   Dixon, CA00:00:00.00 158064  743 Eagle Cycling Club
17560.51Daniele Rossdeutscher   Berkeley, CA00:00:00.00 254356  726 Left Coast Racing Team
18561.79Kelly Snow   San Francisco, CA00:00:00.00 255117  728 Dolce Vita
19563.08Kate Riedell   Oakland, CA00:00:00.00 188596  725 Roaring Mouse Cycles
20564.36kameo Campisi   Vacaville, CA00:00:00.00 273109  708 Precision Bicycles/Team Precis
21Cathy Taylor   00:00:00.00  744 
22566.92Jamii North   Portola Valley, CA00:00:00.00 219869  719 Webcor/Alto Velo
23568.21Evan Evans   San Mateo, CA00:00:00.00 237009  710 Code 3 Racing
24569.49Mary Ellen Allen   San Mateo, CA00:00:00.00 259078  701 WebCor/Alto Velo
25570.77Christina Yglesias   Cupertino, CA00:00:00.00 264750  736 SJBC/SugarCRM
26572.05Haze Thompson   Tres Pinos, CA00:00:00.00 200873  731 Code 3 Racing
27573.33Susan Sall   San Francisco, CA00:00:00.00 233604  740 Dolce Vita Cycling
28574.62Kathryn Underhill   San Ramon, CA00:00:00.00 270296  732 Wells Fargo Racing Team
29575.90Jeanine Bates   San Francisco, CA00:00:00.00 195292  703 Code 3 Racing
30577.18Pennie Sponsel   Millbrae, CA00:00:00.00 196260  742 
31578.46Brett Ortiz   San Francisco, CA00:00:00.00 271361  721 Zgirls
32579.74Michelle Diaz   San Jose, CA00:00:00.00 257714  741 Code Three Womens Cycling
33581.03Mary Glenn Carrasco   Foster City, CA00:00:00.00 266378  709 Velo girls
34582.31Deborah Gallagher   Vacaville, CA00:00:00.00 271597  711 Precision Bicycles/Team Precis
35583.59Sherri Lehman   Gold River, CA00:00:00.00 274098  717 Velo Bella
36584.87Lisa Stefke   Berkeley, CA00:00:00.00 255542  729 Left Coast Racing Team
37586.15Carole Sykes   Tiburon00:00:00.00 270735  730 Easton/SugarCRM/Specialized
38587.44Katherine Hamilton   Fairfax, CA00:00:00.00 253544  712 Code 3 Women's Racing
39588.72Brandi Bergstrom   San Francisco, CA00:00:00.00 264433  706 Dolce Vita Cycling
40590.00Julia Camp   San Francisco, CA00:00:00.00 271058  707 Dolce Vita
DNSJulie Bates   Santa Cruz, CA00:00:00.00 205183  704 Roaring Mouse Cycles
DNSMeredith Obendorfer   San Francisco, CA00:00:00.00 222062  720 Roaring Mouse Cycles
DNSEmma Piggott   San Diego, CA00:00:00.00 219665  724 Dolce Vita Cycling
DNSBergen Watterson   Durham, NC00:00:00.00 271593  733 Roaring Mouse Cycles

Report missing or incorrect license numbers

Volkswagen
USACDFSpyShimanoBonk BreakerSierra Nevada
UCI USA Cycling is the official governing body for all disciplines of competitive cycling in the United States. The 501c3, membership-based organization aims both to achieve sustained success in international cycling competition and to grow competitive cycling in America while delivering an exceptional customer experience.
View Children's Online Privacy Protection Policy
US Olympic Committee